createdAt,value
2023-02-06T00:00:17.730Z,0.00
2023-02-06T00:01:17.928Z,0.00
2023-02-06T00:02:17.966Z,0.00
2023-02-06T00:03:17.664Z,0.00
2023-02-06T00:04:17.662Z,0.00
2023-02-06T00:05:17.665Z,0.00
2023-02-06T00:06:17.677Z,0.00
2023-02-06T00:07:17.640Z,0.00
2023-02-06T00:08:17.663Z,0.00
2023-02-06T00:09:17.604Z,0.00
2023-02-06T00:10:17.592Z,0.00
2023-02-06T00:11:17.535Z,0.00
2023-02-06T00:12:17.516Z,0.00
2023-02-06T00:13:17.545Z,0.00
2023-02-06T00:14:17.519Z,0.00
2023-02-06T00:15:17.595Z,0.00
2023-02-06T00:16:17.558Z,0.00
2023-02-06T00:17:17.530Z,0.00
2023-02-06T00:18:17.724Z,0.00
2023-02-06T00:19:17.431Z,0.00
2023-02-06T00:20:17.415Z,0.00
2023-02-06T00:21:17.402Z,0.00
2023-02-06T00:22:17.598Z,0.00
2023-02-06T00:23:17.364Z,0.00
2023-02-06T00:24:17.344Z,0.00
2023-02-06T00:25:17.417Z,0.00
2023-02-06T00:26:17.325Z,0.00
2023-02-06T00:27:17.297Z,0.00
2023-02-06T00:28:17.423Z,0.00
2023-02-06T00:29:17.254Z,0.00
2023-02-06T00:30:17.242Z,0.00
2023-02-06T00:31:17.349Z,0.00
2023-02-06T00:32:17.316Z,0.00
2023-02-06T00:33:17.218Z,0.00
2023-02-06T00:34:17.429Z,0.00
2023-02-06T00:35:17.171Z,0.00
2023-02-06T00:36:17.228Z,0.00
2023-02-06T00:37:17.148Z,0.00
2023-02-06T00:38:17.128Z,0.00
2023-02-06T00:39:17.189Z,0.00
2023-02-06T00:40:17.121Z,0.00
2023-02-06T00:41:17.086Z,0.00
2023-02-06T00:42:17.108Z,0.00
2023-02-06T00:43:17.063Z,0.00
2023-02-06T00:44:17.252Z,0.00
2023-02-06T00:45:17.040Z,0.00
2023-02-06T00:46:17.096Z,0.00
2023-02-06T00:47:16.991Z,0.00
2023-02-06T00:48:17.005Z,0.00
2023-02-06T00:49:16.996Z,0.00
2023-02-06T00:50:17.002Z,0.00
2023-02-06T00:51:16.973Z,0.00
2023-02-06T00:52:16.941Z,0.00
2023-02-06T00:53:16.917Z,0.00
2023-02-06T00:54:16.912Z,0.00
2023-02-06T00:55:16.877Z,0.00
2023-02-06T00:56:16.869Z,0.00
2023-02-06T00:57:16.833Z,0.00
2023-02-06T00:58:17.053Z,0.00
2023-02-06T00:59:16.819Z,0.00
2023-02-06T01:00:16.881Z,0.00
2023-02-06T01:01:16.897Z,0.00
2023-02-06T01:02:16.773Z,0.00
2023-02-06T01:03:16.781Z,0.00
2023-02-06T01:04:16.950Z,0.00
2023-02-06T01:05:16.744Z,0.00
2023-02-06T01:06:16.859Z,0.00
2023-02-06T01:07:16.755Z,0.00
2023-02-06T01:08:16.690Z,0.00
2023-02-06T01:09:16.668Z,0.00
2023-02-06T01:10:16.630Z,0.00
2023-02-06T01:11:16.660Z,0.00
2023-02-06T01:12:16.666Z,0.00
2023-02-06T01:13:16.575Z,0.00
2023-02-06T01:14:16.586Z,0.00
2023-02-06T01:15:16.583Z,0.00
2023-02-06T01:16:16.627Z,0.00
2023-02-06T01:17:16.534Z,0.00
2023-02-06T01:18:16.526Z,0.00
2023-02-06T01:19:16.491Z,0.00
2023-02-06T01:20:16.482Z,0.00
2023-02-06T01:21:16.704Z,0.00
2023-02-06T01:22:16.460Z,0.00
2023-02-06T01:23:16.445Z,0.00
2023-02-06T01:24:16.428Z,0.00
2023-02-06T01:25:16.433Z,0.00
2023-02-06T01:26:16.390Z,0.00
2023-02-06T01:27:16.382Z,0.00
2023-02-06T01:28:16.407Z,0.00
2023-02-06T01:29:16.341Z,0.00
2023-02-06T01:30:16.323Z,0.00
2023-02-06T01:31:16.374Z,0.00
2023-02-06T01:32:16.304Z,0.00
2023-02-06T01:33:16.307Z,0.00
2023-02-06T01:34:16.276Z,0.00
2023-02-06T01:35:16.262Z,0.00
2023-02-06T01:36:16.241Z,0.00
2023-02-06T01:37:16.243Z,0.00
2023-02-06T01:38:16.208Z,0.00
2023-02-06T01:39:16.397Z,0.00
2023-02-06T01:40:16.172Z,0.00
2023-02-06T01:41:16.181Z,0.00
2023-02-06T01:42:16.143Z,0.00
2023-02-06T01:43:16.337Z,0.00
2023-02-06T01:44:16.541Z,0.00
2023-02-06T01:45:16.102Z,0.00
2023-02-06T01:46:16.206Z,0.00
2023-02-06T01:47:16.070Z,0.00
2023-02-06T01:48:16.071Z,0.00
2023-02-06T01:49:16.230Z,0.00
2023-02-06T01:50:16.052Z,0.00
2023-02-06T01:51:16.011Z,0.00
2023-02-06T01:52:16.051Z,0.00
2023-02-06T01:53:16.300Z,0.00
2023-02-06T01:54:15.987Z,0.00
2023-02-06T01:55:15.958Z,0.00
2023-02-06T01:56:15.928Z,0.00
2023-02-06T01:57:15.939Z,0.00
2023-02-06T01:58:16.101Z,0.00
2023-02-06T01:59:15.882Z,0.00
2023-02-06T02:00:15.868Z,0.00
2023-02-06T02:01:15.857Z,0.00
2023-02-06T02:02:16.101Z,0.00
2023-02-06T02:03:15.838Z,0.00
2023-02-06T02:04:16.212Z,0.00
2023-02-06T02:05:15.820Z,0.00
2023-02-06T02:06:15.784Z,0.00
2023-02-06T02:07:15.763Z,0.00
2023-02-06T02:08:15.744Z,0.00
2023-02-06T02:09:15.850Z,0.00
2023-02-06T02:10:15.739Z,0.00
2023-02-06T02:11:15.712Z,0.00
2023-02-06T02:12:15.699Z,0.00
2023-02-06T02:13:15.691Z,0.00
2023-02-06T02:14:15.669Z,0.00
2023-02-06T02:15:15.644Z,0.00
2023-02-06T02:16:15.714Z,0.00
2023-02-06T02:17:15.629Z,0.00
2023-02-06T02:18:15.603Z,0.00
2023-02-06T02:19:15.600Z,0.00
2023-02-06T02:20:15.590Z,0.00
2023-02-06T02:21:15.584Z,0.00
2023-02-06T02:22:15.567Z,0.00
2023-02-06T02:23:15.562Z,0.00
2023-02-06T02:24:15.514Z,0.00
2023-02-06T02:25:15.563Z,0.00
2023-02-06T02:26:15.531Z,0.00
2023-02-06T02:27:15.508Z,0.00
2023-02-06T02:28:15.496Z,0.00
2023-02-06T02:29:15.701Z,0.00
2023-02-06T02:30:15.476Z,0.00
2023-02-06T02:31:15.482Z,0.00
2023-02-06T02:32:15.414Z,0.00
2023-02-06T02:33:15.419Z,0.00
2023-02-06T02:34:15.406Z,0.00
2023-02-06T02:35:15.556Z,0.00
2023-02-06T02:36:15.350Z,0.00
2023-02-06T02:37:15.330Z,0.00
2023-02-06T02:38:15.344Z,0.00
2023-02-06T02:39:15.495Z,0.00
2023-02-06T02:40:15.477Z,0.00
2023-02-06T02:41:15.353Z,0.00
2023-02-06T02:42:15.260Z,0.00
2023-02-06T02:43:15.235Z,0.00
2023-02-06T02:44:15.252Z,0.00
2023-02-06T02:45:15.198Z,0.00
2023-02-06T02:46:15.200Z,0.00
2023-02-06T02:47:15.179Z,0.00
2023-02-06T02:48:15.152Z,0.00
2023-02-06T02:49:15.352Z,0.00
2023-02-06T02:50:15.157Z,0.00
2023-02-06T02:51:15.108Z,0.00
2023-02-06T02:52:15.105Z,0.00
2023-02-06T02:53:15.100Z,0.00
2023-02-06T02:54:15.255Z,0.00
2023-02-06T02:55:15.087Z,0.00
2023-02-06T02:56:15.019Z,0.00
2023-02-06T02:57:15.060Z,0.00
2023-02-06T02:58:15.023Z,0.00
2023-02-06T02:59:14.994Z,0.00
2023-02-06T03:00:14.987Z,0.00
2023-02-06T03:01:14.991Z,0.00
2023-02-06T03:02:15.006Z,0.00
2023-02-06T03:03:14.940Z,0.00
2023-02-06T03:04:15.131Z,0.00
2023-02-06T03:05:14.900Z,0.00
2023-02-06T03:06:14.895Z,0.00
2023-02-06T03:07:14.869Z,0.00
2023-02-06T03:08:14.842Z,0.00
2023-02-06T03:09:14.858Z,0.00
2023-02-06T03:10:14.813Z,0.00
2023-02-06T03:11:15.029Z,0.00
2023-02-06T03:12:14.786Z,0.00
2023-02-06T03:13:14.996Z,0.00
2023-02-06T03:14:14.808Z,0.00
2023-02-06T03:15:14.734Z,0.00
2023-02-06T03:16:14.780Z,0.00
2023-02-06T03:17:14.714Z,0.00
2023-02-06T03:18:14.711Z,0.00
2023-02-06T03:19:14.716Z,0.00
2023-02-06T03:20:14.677Z,0.00
2023-02-06T03:21:14.642Z,0.00
2023-02-06T03:22:14.869Z,0.00
2023-02-06T03:23:14.620Z,0.00
2023-02-06T03:24:14.612Z,0.00
2023-02-06T03:25:14.603Z,0.00
2023-02-06T03:26:14.573Z,0.00
2023-02-06T03:27:14.754Z,0.00
2023-02-06T03:28:14.654Z,0.00
2023-02-06T03:29:14.722Z,0.00
2023-02-06T03:30:14.748Z,0.00
2023-02-06T03:31:14.546Z,0.00
2023-02-06T03:32:14.509Z,0.00
2023-02-06T03:33:14.463Z,0.00
2023-02-06T03:34:14.669Z,0.00
2023-02-06T03:35:14.490Z,0.00
2023-02-06T03:36:14.422Z,0.00
2023-02-06T03:37:14.651Z,0.00
2023-02-06T03:38:14.420Z,0.00
2023-02-06T03:39:14.392Z,0.00
2023-02-06T03:40:14.395Z,0.00
2023-02-06T03:41:14.376Z,0.00
2023-02-06T03:42:14.354Z,0.00
2023-02-06T03:43:14.331Z,0.00
2023-02-06T03:44:14.316Z,0.00
2023-02-06T03:45:14.295Z,0.00
2023-02-06T03:46:14.311Z,0.00
2023-02-06T03:47:14.258Z,0.00
2023-02-06T03:48:14.234Z,0.00
2023-02-06T03:49:14.241Z,0.00
2023-02-06T03:50:14.250Z,0.00
2023-02-06T03:51:14.217Z,0.00
2023-02-06T03:52:14.226Z,0.00
2023-02-06T03:53:14.286Z,0.00
2023-02-06T03:54:14.192Z,0.00
2023-02-06T03:55:14.145Z,0.00
2023-02-06T03:56:14.140Z,0.00
2023-02-06T03:57:14.940Z,0.00
2023-02-06T03:58:14.131Z,0.00
2023-02-06T03:59:14.092Z,0.00
2023-02-06T04:00:14.091Z,0.00
2023-02-06T04:01:14.153Z,0.00
2023-02-06T04:02:14.092Z,0.00
2023-02-06T04:03:14.058Z,0.00
2023-02-06T04:04:14.014Z,0.00
2023-02-06T04:05:14.003Z,0.00
2023-02-06T04:06:14.002Z,0.00
2023-02-06T04:07:14.178Z,0.00
2023-02-06T04:08:13.957Z,0.00
2023-02-06T04:09:13.946Z,0.00
2023-02-06T04:10:13.918Z,0.00
2023-02-06T04:11:13.911Z,0.00
2023-02-06T04:12:13.902Z,0.00
2023-02-06T04:13:13.898Z,0.00
2023-02-06T04:14:13.854Z,0.00
2023-02-06T04:15:13.856Z,0.00
2023-02-06T04:16:13.834Z,0.00
2023-02-06T04:17:17.026Z,0.00
2023-02-06T04:18:13.805Z,0.00
2023-02-06T04:19:13.791Z,0.00
2023-02-06T04:20:13.763Z,0.00
2023-02-06T04:21:13.754Z,0.00
2023-02-06T04:22:13.777Z,0.00
2023-02-06T04:23:13.753Z,0.00
2023-02-06T04:24:13.714Z,0.00
2023-02-06T04:25:13.718Z,0.00
2023-02-06T04:26:13.714Z,0.00
2023-02-06T04:27:13.681Z,0.00
2023-02-06T04:28:13.747Z,0.00
2023-02-06T04:29:13.636Z,0.00
2023-02-06T04:30:13.666Z,0.00
2023-02-06T04:31:13.839Z,0.00
2023-02-06T04:32:13.622Z,0.00
2023-02-06T04:33:13.624Z,0.00
2023-02-06T04:34:13.565Z,0.00
2023-02-06T04:35:13.543Z,0.00
2023-02-06T04:36:13.730Z,0.00
2023-02-06T04:37:13.504Z,0.00
2023-02-06T04:38:13.507Z,0.00
2023-02-06T04:39:13.494Z,0.00
2023-02-06T04:40:13.695Z,0.00
2023-02-06T04:41:13.488Z,0.00
2023-02-06T04:42:13.436Z,0.00
2023-02-06T04:43:13.447Z,0.00
2023-02-06T04:44:13.390Z,0.00
2023-02-06T04:45:13.410Z,0.00
2023-02-06T04:46:13.409Z,0.00
2023-02-06T04:47:13.402Z,0.00
2023-02-06T04:48:13.373Z,0.00
2023-02-06T04:49:13.383Z,0.00
2023-02-06T04:50:13.381Z,0.00
2023-02-06T04:51:13.311Z,0.00
2023-02-06T04:52:13.282Z,0.00
2023-02-06T04:53:13.277Z,0.00
2023-02-06T04:54:13.253Z,0.00
2023-02-06T04:55:13.235Z,0.00
2023-02-06T04:56:13.450Z,0.00
2023-02-06T04:57:13.233Z,0.00
2023-02-06T04:58:13.298Z,0.00
2023-02-06T04:59:13.204Z,0.00
2023-02-06T05:00:13.177Z,0.00
2023-02-06T05:01:13.197Z,0.00
2023-02-06T05:02:13.202Z,0.00
2023-02-06T05:03:13.142Z,0.00
2023-02-06T05:04:13.118Z,0.00
2023-02-06T05:05:13.212Z,0.00
2023-02-06T05:06:13.106Z,0.00
2023-02-06T05:07:13.109Z,0.00
2023-02-06T05:08:13.251Z,0.00
2023-02-06T05:09:13.064Z,0.00
2023-02-06T05:10:13.030Z,0.00
2023-02-06T05:11:13.019Z,0.00
2023-02-06T05:12:14.333Z,0.00
2023-02-06T05:13:13.029Z,0.00
2023-02-06T05:14:12.979Z,0.00
2023-02-06T05:15:12.930Z,0.00
2023-02-06T05:16:13.149Z,0.00
2023-02-06T05:17:12.935Z,0.00
2023-02-06T05:18:12.896Z,0.00
2023-02-06T05:19:13.092Z,0.00
2023-02-06T05:20:12.904Z,0.00
2023-02-06T05:21:12.912Z,0.00
2023-02-06T05:22:13.080Z,0.00
2023-02-06T05:23:12.810Z,0.00
2023-02-06T05:24:12.837Z,0.00
2023-02-06T05:25:12.779Z,0.00
2023-02-06T05:26:12.808Z,0.00
2023-02-06T05:27:12.764Z,0.00
2023-02-06T05:28:12.990Z,0.00
2023-02-06T05:29:12.740Z,0.00
2023-02-06T05:30:12.742Z,0.00
2023-02-06T05:31:12.763Z,0.00
2023-02-06T05:32:12.680Z,0.00
2023-02-06T05:33:12.656Z,0.00
2023-02-06T05:34:12.644Z,0.00
2023-02-06T05:35:12.628Z,0.00
2023-02-06T05:36:12.614Z,0.00
2023-02-06T05:37:12.740Z,0.00
2023-02-06T05:38:12.595Z,0.00
2023-02-06T05:39:12.612Z,0.00
2023-02-06T05:40:12.596Z,0.00
2023-02-06T05:41:12.557Z,0.00
2023-02-06T05:42:12.961Z,0.00
2023-02-06T05:43:12.515Z,0.00
2023-02-06T05:44:12.503Z,0.00
2023-02-06T05:45:12.500Z,0.00
2023-02-06T05:46:12.525Z,0.00
2023-02-06T05:47:12.460Z,0.00
2023-02-06T05:48:12.475Z,0.00
2023-02-06T05:49:12.434Z,0.00
2023-02-06T05:50:12.422Z,0.00
2023-02-06T05:51:12.381Z,0.00
2023-02-06T05:52:12.430Z,0.00
2023-02-06T05:53:12.403Z,0.00
2023-02-06T05:54:12.369Z,0.00
2023-02-06T05:55:12.328Z,0.00
2023-02-06T05:56:12.354Z,0.00
2023-02-06T05:57:12.315Z,0.00
2023-02-06T05:58:12.502Z,0.00
2023-02-06T05:59:12.311Z,0.00
2023-02-06T06:00:12.504Z,0.00
2023-02-06T06:01:12.246Z,0.00
2023-02-06T06:02:12.230Z,0.00
2023-02-06T06:03:12.246Z,0.00
2023-02-06T06:04:12.274Z,0.00
2023-02-06T06:05:12.235Z,0.00
2023-02-06T06:06:12.200Z,0.00
2023-02-06T06:07:12.185Z,0.00
2023-02-06T06:08:12.210Z,0.00
2023-02-06T06:09:12.162Z,0.00
2023-02-06T06:10:12.153Z,0.00
2023-02-06T06:11:12.170Z,0.00
2023-02-06T06:12:12.107Z,0.00
2023-02-06T06:13:12.077Z,0.00
2023-02-06T06:14:12.120Z,0.00
2023-02-06T06:15:12.255Z,0.00
2023-02-06T06:16:12.135Z,0.00
2023-02-06T06:17:12.013Z,0.00
2023-02-06T06:18:12.017Z,0.00
2023-02-06T06:19:12.005Z,0.00
2023-02-06T06:20:11.978Z,0.00
2023-02-06T06:21:12.017Z,0.00
2023-02-06T06:22:11.948Z,0.00
2023-02-06T06:23:11.968Z,0.00
2023-02-06T06:24:11.894Z,0.00
2023-02-06T06:25:11.904Z,0.00
2023-02-06T06:26:11.895Z,0.00
2023-02-06T06:27:12.055Z,0.00
2023-02-06T06:28:12.109Z,0.00
2023-02-06T06:29:11.840Z,0.00
2023-02-06T06:30:11.854Z,4.00
2023-02-06T06:31:12.010Z,4.00
2023-02-06T06:32:11.813Z,0.00
2023-02-06T06:33:11.813Z,0.00
2023-02-06T06:34:11.752Z,4.00
2023-02-06T06:35:11.787Z,4.00
2023-02-06T06:36:14.240Z,4.00
2023-02-06T06:37:11.910Z,4.00
2023-02-06T06:38:11.683Z,4.00
2023-02-06T06:39:11.721Z,4.00
2023-02-06T06:40:11.661Z,4.00
2023-02-06T06:41:11.669Z,8.00
2023-02-06T06:42:11.642Z,8.00
2023-02-06T06:43:11.624Z,8.00
2023-02-06T06:44:11.631Z,8.00
2023-02-06T06:45:11.610Z,8.00
2023-02-06T06:46:11.570Z,8.00
2023-02-06T06:47:11.582Z,12.00
2023-02-06T06:48:11.780Z,12.00
2023-02-06T06:49:11.549Z,12.00
2023-02-06T06:50:11.549Z,12.00
2023-02-06T06:51:11.559Z,12.00
2023-02-06T06:52:24.138Z,16.00
2023-02-06T06:53:11.493Z,16.00
2023-02-06T06:54:11.451Z,16.00
2023-02-06T06:55:11.452Z,20.00
2023-02-06T06:56:11.488Z,20.00
2023-02-06T06:57:11.457Z,24.00
2023-02-06T06:58:11.377Z,24.00
2023-02-06T06:59:11.427Z,28.00
2023-02-06T07:00:11.400Z,32.00
2023-02-06T07:01:11.665Z,32.00
2023-02-06T07:02:11.340Z,36.00
2023-02-06T07:03:11.447Z,36.00
2023-02-06T07:04:11.313Z,40.00
2023-02-06T07:05:11.332Z,44.00
2023-02-06T07:06:11.297Z,48.00
2023-02-06T07:07:11.332Z,48.00
2023-02-06T07:08:11.242Z,44.00
2023-02-06T07:09:11.422Z,48.00
2023-02-06T07:10:11.236Z,48.00
2023-02-06T07:11:11.181Z,52.00
2023-02-06T07:12:11.172Z,56.00
2023-02-06T07:13:11.179Z,60.00
2023-02-06T07:14:11.160Z,64.00
2023-02-06T07:15:11.178Z,64.00
2023-02-06T07:16:11.161Z,64.00
2023-02-06T07:17:11.100Z,72.00
2023-02-06T07:18:11.966Z,76.00
2023-02-06T07:19:11.290Z,80.00
2023-02-06T07:20:11.250Z,92.00
2023-02-06T07:21:11.082Z,96.00
2023-02-06T07:22:11.029Z,104.00
2023-02-06T07:23:11.056Z,120.00
2023-02-06T07:24:11.016Z,128.00
2023-02-06T07:25:10.989Z,136.00
2023-02-06T07:26:11.003Z,152.00
2023-02-06T07:27:10.977Z,160.00
2023-02-06T07:28:10.965Z,152.00
2023-02-06T07:29:11.195Z,156.00
2023-02-06T07:30:10.913Z,160.00
2023-02-06T07:31:10.904Z,160.00
2023-02-06T07:32:10.877Z,164.00
2023-02-06T07:33:10.857Z,164.00
2023-02-06T07:34:10.845Z,168.00
2023-02-06T07:35:10.864Z,168.00
2023-02-06T07:36:10.827Z,172.00
2023-02-06T07:37:10.824Z,168.00
2023-02-06T07:38:10.827Z,160.00
2023-02-06T07:39:10.806Z,152.00
2023-02-06T07:40:10.775Z,160.00
2023-02-06T07:41:12.639Z,168.00
2023-02-06T07:42:10.735Z,172.00
2023-02-06T07:43:10.725Z,180.00
2023-02-06T07:44:10.715Z,184.00
2023-02-06T07:45:10.717Z,192.00
2023-02-06T07:46:10.678Z,196.00
2023-02-06T07:47:10.677Z,200.00
2023-02-06T07:48:10.638Z,204.00
2023-02-06T07:49:10.616Z,232.00
2023-02-06T07:50:10.610Z,260.00
2023-02-06T07:51:11.019Z,260.00
2023-02-06T07:52:10.584Z,256.00
2023-02-06T07:53:10.561Z,244.00
2023-02-06T07:54:10.546Z,232.00
2023-02-06T07:55:10.555Z,236.00
2023-02-06T07:56:10.734Z,240.00
2023-02-06T07:57:10.503Z,256.00
2023-02-06T07:58:10.488Z,272.00
2023-02-06T07:59:10.463Z,288.00
2023-02-06T08:00:10.520Z,312.00
2023-02-06T08:01:10.488Z,360.00
2023-02-06T08:02:10.444Z,400.00
2023-02-06T08:03:10.404Z,428.00
2023-02-06T08:04:10.425Z,408.00
2023-02-06T08:05:10.376Z,392.00
2023-02-06T08:06:10.390Z,380.00
2023-02-06T08:07:10.344Z,360.00
2023-02-06T08:08:10.315Z,336.00
2023-02-06T08:09:10.339Z,324.00
2023-02-06T08:10:10.332Z,336.00
2023-02-06T08:11:10.321Z,356.00
2023-02-06T08:12:11.875Z,372.00
2023-02-06T08:13:10.272Z,360.00
2023-02-06T08:14:10.259Z,372.00
2023-02-06T08:15:10.246Z,380.00
2023-02-06T08:16:10.214Z,408.00
2023-02-06T08:17:10.246Z,440.00
2023-02-06T08:18:10.231Z,452.00
2023-02-06T08:19:10.155Z,444.00
2023-02-06T08:20:10.184Z,444.00
2023-02-06T08:21:10.193Z,436.00
2023-02-06T08:22:10.346Z,404.00
2023-02-06T08:23:10.119Z,396.00
2023-02-06T08:24:10.111Z,396.00
2023-02-06T08:25:10.072Z,396.00
2023-02-06T08:26:10.073Z,432.00
2023-02-06T08:27:10.061Z,492.00
2023-02-06T08:28:10.082Z,500.00
2023-02-06T08:29:10.024Z,528.00
2023-02-06T08:30:10.018Z,552.00
2023-02-06T08:31:10.160Z,604.00
2023-02-06T08:32:10.008Z,768.00
2023-02-06T08:33:10.396Z,1016.00
2023-02-06T08:34:09.981Z,996.00
2023-02-06T08:35:09.935Z,860.00
2023-02-06T08:36:09.943Z,800.00
2023-02-06T08:37:09.901Z,904.00
2023-02-06T08:38:09.894Z,1180.00
2023-02-06T08:39:09.914Z,1292.00
2023-02-06T08:40:09.883Z,1280.00
2023-02-06T08:41:09.883Z,1304.00
2023-02-06T08:42:09.866Z,1264.00
2023-02-06T08:43:09.820Z,1284.00
2023-02-06T08:44:09.832Z,1252.00
2023-02-06T08:45:09.780Z,1328.00
2023-02-06T08:46:09.860Z,1292.00
2023-02-06T08:47:10.744Z,1228.00
2023-02-06T08:48:09.743Z,1224.00
2023-02-06T08:49:09.756Z,1188.00
2023-02-06T08:50:09.712Z,1204.00
2023-02-06T08:51:09.712Z,1292.00
2023-02-06T08:52:09.702Z,1220.00
2023-02-06T08:53:09.661Z,1484.00
2023-02-06T08:54:09.638Z,1480.00
2023-02-06T08:55:09.657Z,1340.00
2023-02-06T08:56:09.610Z,1200.00
2023-02-06T08:57:09.629Z,1312.00
2023-02-06T08:58:09.583Z,1428.00
2023-02-06T08:59:09.604Z,1388.00
2023-02-06T09:00:09.563Z,1268.00
2023-02-06T09:01:09.625Z,1376.00
2023-02-06T09:02:09.611Z,1384.00
2023-02-06T09:03:09.540Z,1336.00
2023-02-06T09:04:09.500Z,1212.00
2023-02-06T09:05:09.518Z,1176.00
2023-02-06T09:06:10.579Z,1216.00
2023-02-06T09:07:09.489Z,1248.00
2023-02-06T09:08:09.461Z,1292.00
2023-02-06T09:09:09.492Z,1280.00
2023-02-06T09:10:18.981Z,1300.00
2023-02-06T09:11:09.438Z,1276.00
2023-02-06T09:12:09.380Z,1260.00
2023-02-06T09:13:09.371Z,1252.00
2023-02-06T09:14:09.420Z,1264.00
2023-02-06T09:15:09.336Z,1312.00
2023-02-06T09:16:09.369Z,1332.00
2023-02-06T09:17:09.375Z,1272.00
2023-02-06T09:18:09.313Z,1244.00
2023-02-06T09:19:09.480Z,1212.00
2023-02-06T09:20:09.274Z,1184.00
2023-02-06T09:21:09.389Z,1212.00
2023-02-06T09:22:09.446Z,1164.00
2023-02-06T09:23:09.215Z,1180.00
2023-02-06T09:24:09.205Z,1208.00
2023-02-06T09:25:09.203Z,1280.00
2023-02-06T09:26:09.174Z,1264.00
2023-02-06T09:27:09.167Z,1316.00
2023-02-06T09:28:09.372Z,1320.00
2023-02-06T09:29:09.145Z,1136.00
2023-02-06T09:30:09.635Z,1028.00
2023-02-06T09:31:09.273Z,1012.00
2023-02-06T09:32:09.106Z,1080.00
2023-02-06T09:33:09.103Z,1192.00
2023-02-06T09:34:09.056Z,1372.00
2023-02-06T09:35:09.055Z,1460.00
2023-02-06T09:36:09.061Z,1492.00
2023-02-06T09:37:09.064Z,1520.00
2023-02-06T09:38:09.031Z,1608.00
2023-02-06T09:39:08.984Z,1628.00
2023-02-06T09:40:08.967Z,1572.00
2023-02-06T09:41:08.950Z,1580.00
2023-02-06T09:42:08.972Z,1492.00
2023-02-06T09:43:08.954Z,1388.00
2023-02-06T09:44:08.961Z,1268.00
2023-02-06T09:45:08.920Z,1032.00
2023-02-06T09:46:08.897Z,940.00
2023-02-06T09:47:08.907Z,940.00
2023-02-06T09:48:08.869Z,1060.00
2023-02-06T09:49:08.858Z,1168.00
2023-02-06T09:50:09.019Z,1160.00
2023-02-06T09:51:08.806Z,1200.00
2023-02-06T09:52:08.819Z,1240.00
2023-02-06T09:53:08.833Z,1248.00
2023-02-06T09:54:08.847Z,1292.00
2023-02-06T09:55:08.947Z,1304.00
2023-02-06T09:56:08.748Z,1244.00
2023-02-06T09:57:08.769Z,1240.00
2023-02-06T09:58:08.711Z,1216.00
2023-02-06T09:59:08.895Z,1180.00
2023-02-06T10:00:08.693Z,1176.00
2023-02-06T10:01:08.701Z,1100.00
2023-02-06T10:02:08.645Z,1164.00
2023-02-06T10:03:08.670Z,1044.00
2023-02-06T10:04:08.694Z,1112.00
2023-02-06T10:05:08.643Z,1132.00
2023-02-06T10:06:08.641Z,1072.00
2023-02-06T10:07:08.603Z,964.00
2023-02-06T10:08:08.632Z,920.00
2023-02-06T10:09:08.578Z,1160.00
2023-02-06T10:10:08.576Z,1316.00
2023-02-06T10:11:08.553Z,1364.00
2023-02-06T10:12:08.720Z,1424.00
2023-02-06T10:13:08.527Z,1524.00
2023-02-06T10:14:08.470Z,1572.00
2023-02-06T10:15:08.445Z,1596.00
2023-02-06T10:16:10.447Z,1644.00
2023-02-06T10:17:08.426Z,1456.00
2023-02-06T10:18:08.429Z,1292.00
2023-02-06T10:19:08.439Z,1260.00
2023-02-06T10:20:08.394Z,1444.00
2023-02-06T10:21:08.375Z,1780.00
2023-02-06T10:22:08.363Z,2008.00
2023-02-06T10:23:08.537Z,2164.00
2023-02-06T10:24:08.327Z,2408.00
2023-02-06T10:25:08.480Z,2688.00
2023-02-06T10:26:08.294Z,2252.00
2023-02-06T10:27:08.280Z,2132.00
2023-02-06T10:28:08.333Z,2280.00
2023-02-06T10:29:08.262Z,1756.00
2023-02-06T10:30:08.248Z,1376.00
2023-02-06T10:31:08.427Z,1316.00
2023-02-06T10:32:08.230Z,1160.00
2023-02-06T10:33:14.310Z,1044.00
2023-02-06T10:34:08.182Z,1160.00
2023-02-06T10:35:08.199Z,1156.00
2023-02-06T10:36:08.165Z,1148.00
2023-02-06T10:37:08.358Z,1004.00
2023-02-06T10:38:08.165Z,964.00
2023-02-06T10:39:08.165Z,912.00
2023-02-06T10:40:08.122Z,832.00
2023-02-06T10:41:08.142Z,820.00
2023-02-06T10:42:08.107Z,744.00
2023-02-06T10:43:08.090Z,768.00
2023-02-06T10:44:08.271Z,748.00
2023-02-06T10:45:19.339Z,744.00
2023-02-06T10:46:08.029Z,728.00
2023-02-06T10:47:08.137Z,680.00
2023-02-06T10:48:07.997Z,652.00
2023-02-06T10:49:07.970Z,616.00
2023-02-06T10:50:07.976Z,624.00
2023-02-06T10:51:08.164Z,632.00
2023-02-06T10:52:07.939Z,636.00
2023-02-06T10:53:07.950Z,608.00
2023-02-06T10:54:07.901Z,524.00
2023-02-06T10:55:07.911Z,508.00
2023-02-06T10:56:07.877Z,572.00
2023-02-06T10:57:07.870Z,596.00
2023-02-06T10:58:07.858Z,608.00
2023-02-06T10:59:07.880Z,672.00
2023-02-06T11:00:07.816Z,812.00
2023-02-06T11:01:23.726Z,896.00
2023-02-06T11:02:07.893Z,852.00
2023-02-06T11:03:08.538Z,940.00
2023-02-06T11:04:07.767Z,1016.00
2023-02-06T11:05:07.767Z,1068.00
2023-02-06T11:06:07.712Z,1064.00
2023-02-06T11:07:07.702Z,1068.00
2023-02-06T11:08:07.906Z,1008.00
2023-02-06T11:09:07.750Z,872.00
2023-02-06T11:10:07.678Z,808.00
2023-02-06T11:11:07.670Z,720.00
2023-02-06T11:12:07.627Z,620.00
2023-02-06T11:13:07.688Z,564.00
2023-02-06T11:14:07.651Z,564.00
2023-02-06T11:15:07.601Z,548.00
2023-02-06T11:16:07.618Z,528.00
2023-02-06T11:17:07.592Z,508.00
2023-02-06T11:18:07.558Z,496.00
2023-02-06T11:19:07.565Z,480.00
2023-02-06T11:20:07.514Z,468.00
2023-02-06T11:21:07.549Z,492.00
2023-02-06T11:22:07.482Z,480.00
2023-02-06T11:23:07.684Z,488.00
2023-02-06T11:24:07.492Z,504.00
2023-02-06T11:25:07.468Z,520.00
2023-02-06T11:26:07.417Z,540.00
2023-02-06T11:27:07.457Z,592.00
2023-02-06T11:28:07.471Z,612.00
2023-02-06T11:29:07.403Z,544.00
2023-02-06T11:30:07.434Z,508.00
2023-02-06T11:31:07.416Z,460.00
2023-02-06T11:32:07.343Z,500.00
2023-02-06T11:33:07.352Z,508.00
2023-02-06T11:34:07.327Z,516.00
2023-02-06T11:35:07.354Z,528.00
2023-02-06T11:36:07.289Z,572.00
2023-02-06T11:37:07.293Z,584.00
2023-02-06T11:38:07.295Z,560.00
2023-02-06T11:39:07.253Z,564.00
2023-02-06T11:40:07.257Z,548.00
2023-02-06T11:41:07.208Z,532.00
2023-02-06T11:42:07.181Z,516.00
2023-02-06T11:43:07.222Z,612.00
2023-02-06T11:44:07.204Z,724.00
2023-02-06T11:45:07.203Z,820.00
2023-02-06T11:46:07.226Z,832.00
2023-02-06T11:47:07.155Z,856.00
2023-02-06T11:48:07.145Z,912.00
2023-02-06T11:49:07.076Z,892.00
2023-02-06T11:50:07.260Z,756.00
2023-02-06T11:51:07.036Z,704.00
2023-02-06T11:52:07.268Z,644.00
2023-02-06T11:53:07.069Z,648.00
2023-02-06T11:54:07.008Z,696.00
2023-02-06T11:55:06.992Z,720.00
2023-02-06T11:56:07.006Z,788.00
2023-02-06T11:57:07.018Z,772.00
2023-02-06T11:58:06.946Z,764.00
2023-02-06T11:59:07.278Z,720.00
2023-02-06T12:00:06.912Z,660.00
2023-02-06T12:01:06.939Z,668.00
2023-02-06T12:02:06.976Z,676.00
2023-02-06T12:03:06.986Z,644.00
2023-02-06T12:04:06.878Z,664.00
2023-02-06T12:05:06.824Z,660.00
2023-02-06T12:06:06.840Z,660.00
2023-02-06T12:07:06.803Z,632.00
2023-02-06T12:08:06.791Z,600.00
2023-02-06T12:09:06.789Z,596.00
2023-02-06T12:10:06.982Z,584.00
2023-02-06T12:11:06.977Z,560.00
2023-02-06T12:12:06.735Z,540.00
2023-02-06T12:13:06.727Z,512.00
2023-02-06T12:14:06.716Z,476.00
2023-02-06T12:15:29.514Z,460.00
2023-02-06T12:16:06.662Z,460.00
2023-02-06T12:17:06.769Z,488.00
2023-02-06T12:18:06.649Z,500.00
2023-02-06T12:19:06.643Z,520.00
2023-02-06T12:20:06.636Z,556.00
2023-02-06T12:21:06.883Z,548.00
2023-02-06T12:22:06.827Z,612.00
2023-02-06T12:23:06.578Z,680.00
2023-02-06T12:24:06.689Z,676.00
2023-02-06T12:25:06.749Z,588.00
2023-02-06T12:26:06.541Z,564.00
2023-02-06T12:27:06.532Z,584.00
2023-02-06T12:28:06.541Z,584.00
2023-02-06T12:29:06.506Z,560.00
2023-02-06T12:30:06.482Z,552.00
2023-02-06T12:31:06.527Z,564.00
2023-02-06T12:32:06.449Z,556.00
2023-02-06T12:33:06.674Z,560.00
2023-02-06T12:34:06.401Z,536.00
2023-02-06T12:35:06.389Z,504.00
2023-02-06T12:36:06.365Z,512.00
2023-02-06T12:37:06.579Z,516.00
2023-02-06T12:38:06.377Z,492.00
2023-02-06T12:39:06.373Z,496.00
2023-02-06T12:40:06.318Z,452.00
2023-02-06T12:41:06.303Z,416.00
2023-02-06T12:42:06.496Z,400.00
2023-02-06T12:43:06.356Z,396.00
2023-02-06T12:44:06.438Z,392.00
2023-02-06T12:45:06.263Z,396.00
2023-02-06T12:46:06.238Z,396.00
2023-02-06T12:47:06.229Z,392.00
2023-02-06T12:48:06.413Z,380.00
2023-02-06T12:49:06.204Z,376.00
2023-02-06T12:50:06.152Z,360.00
2023-02-06T12:51:06.133Z,344.00